^^
Station Historical Data
Daily Summary for February 20, 2018 Units:  Metric    English   Both
« Previous Day
Next Day »
Daily Weekly Monthly Yearly Custom
  High: Low: Average:
Temperature: -17.8 °C 21.3 °C 28.5 °C
Dew Point: -17.8 °C 3.4 °C 8.1 °C
Humidity: Humidity% 16% 30%
Wind Speed: 0km/h 0km/h 11.7km/h
Wind Gust: 0km/h - -
Wind- - SSW
Pressure: 0 hPa 1004.6 hPa -
Precipitation: 0 mm    
Historical Graphs
 
 
Tabular Data for February 20, 2018
Time Temperature Dew Point Pressure Wind Wind Speed Wind Gust Humidity Rainfall Rate (Hourly) solar Conditions
-17.8 °C -17.8 °C 0 hPa Calm     Humidity% 0 mm SolarRadiationWatts/m^2 W/m2 Conditions
08:33 21.3 °C 11.9 °C 1009.7 hPa SW 14.3 km/h 17.7 km/h 55% 0 mm 376.0 W/m2
08:45 21.6 °C 11.9 °C 1009.7 hPa SW 17.7 km/h 19.3 km/h 54% 0 mm 410.0 W/m2
08:55 22.2 °C 11.9 °C 1010 hPa SW 14.3 km/h 20.9 km/h 52% 0 mm 446.0 W/m2
09:02 22.6 °C 11.9 °C 1009.7 hPa SW 17.7 km/h 17.7 km/h 51% 0 mm 483.0 W/m2
09:11 22.9 °C 11.6 °C 1009.7 hPa SW 16.3 km/h 17.7 km/h 49% 0 mm 515.0 W/m2
09:16 23.2 °C 11.6 °C 1009.7 hPa SW 11.1 km/h 17.7 km/h 48% 0 mm 536.0 W/m2
09:21 23.3 °C 11.4 °C 1009.7 hPa SW 7.9 km/h 17.7 km/h 47% 0 mm 550.0 W/m2
09:26 23.4 °C 11.4 °C 1009.7 hPa SW 9.7 km/h 14.5 km/h 47% 0 mm 566.0 W/m2
09:32 23.6 °C 11.6 °C 1009.7 hPa SW 13 km/h 19.3 km/h 47% 0 mm 584.0 W/m2
09:37 23.8 °C 11.5 °C 1009.7 hPa SW 11.1 km/h 16.1 km/h 46% 0 mm 601.0 W/m2
09:47 24.1 °C 11.4 °C 1009.7 hPa SW 11.1 km/h 14.5 km/h 45% 0 mm 631.0 W/m2
09:52 24.4 °C 11.4 °C 1009.4 hPa SW 14.3 km/h 16.1 km/h 44% 0 mm 649.0 W/m2
10:02 24.9 °C 11.5 °C 1009.4 hPa SW 14.3 km/h 14.5 km/h 43% 0 mm 679.0 W/m2
10:07 25.2 °C 11.4 °C 1009.4 hPa SW 13 km/h 17.7 km/h 42% 0 mm 694.0 W/m2
10:18 25.6 °C 11.4 °C 1009.4 hPa SW 14.3 km/h 17.7 km/h 41% 0 mm 715.0 W/m2
10:34 26.3 °C 11.2 °C 1009.4 hPa SW 14.3 km/h 17.7 km/h 39% 0 mm 761.0 W/m2
10:40 26.6 °C 11.1 °C 1009.4 hPa SW 9.7 km/h 17.7 km/h 38% 0 mm 773.0 W/m2
10:51 26.8 °C 10.9 °C 1009.4 hPa SW 11.1 km/h 16.1 km/h 37% 0 mm 798.0 W/m2
11:00 27.3 °C 10.9 °C 1009 hPa SW 14.3 km/h 16.1 km/h 36% 0 mm 819.0 W/m2
11:10 27.7 °C 10.4 °C 1009 hPa SW 13 km/h 19.3 km/h 34% 0 mm 840.0 W/m2
11:58 29.6 °C 9.2 °C 1008.7 hPa SW 11.1 km/h 17.7 km/h 28% 0 mm 914.0 W/m2
12:10 30.6 °C 8.9 °C 1008.4 hPa SW 4.7 km/h 11.3 km/h 26% 0 mm 933.0 W/m2
12:18 31 °C 8.7 °C 1008.4 hPa SW 14.3 km/h 19.3 km/h 25% 0 mm 944.0 W/m2
12:23 31.2 °C 8.2 °C 1008.4 hPa SW 16.3 km/h 17.7 km/h 24% 0 mm 947.0 W/m2
12:29 31.5 °C 8.5 °C 1008.4 hPa SW 13 km/h 13 km/h 24% 0 mm 947.0 W/m2
12:39 31.6 °C 7.9 °C 1008.4 hPa SW 17.7 km/h 22.5 km/h 23% 0 mm 954.0 W/m2
12:47 31.8 °C 6.8 °C 1008.4 hPa Calm   19.3 km/h 21% 0 mm 954.0 W/m2
12:59 32.4 °C 7.3 °C 1008.4 hPa SW 16.3 km/h 16.3 km/h 21% 0 mm 954.0 W/m2
13:14 32.4 °C 6.6 °C 1008 hPa SW 6.4 km/h 16.1 km/h 20% 0 mm 956.0 W/m2
13:27 32.6 °C 6.7 °C 1007.7 hPa Calm     20% 0 mm 954.0 W/m2
13:38 32.7 °C 6.1 °C 1007.7 hPa SW 7.9 km/h 20.9 km/h 19% 0 mm 949.0 W/m2
13:48 32.8 °C 6.1 °C 1007.7 hPa SW 9.7 km/h 11.3 km/h 19% 0 mm 942.0 W/m2
13:58 33.2 °C 6.5 °C 1007.7 hPa SW 4.7 km/h 14.5 km/h 19% 0 mm 932.0 W/m2
14:09 33.4 °C 6.6 °C 1007.3 hPa SW 7.9 km/h 16.1 km/h 19% 0 mm 921.0 W/m2
14:19 33.4 °C 6.6 °C 1007.3 hPa SW 7.9 km/h 11.3 km/h 19% 0 mm 907.0 W/m2
14:35 33.8 °C 6.2 °C 1007 hPa SW 6.4 km/h 8 km/h 18% 0 mm 886.0 W/m2
14:50 34 °C 6.3 °C 1006.7 hPa Calm     18% 0 mm 856.0 W/m2
15:05 34.6 °C 6 °C 1006.3 hPa SW 14.3 km/h 25.7 km/h 17% 0 mm 828.0 W/m2
15:46 34.6 °C 6 °C 1005.6 hPa Calm   8 km/h 17% 0 mm 733.0 W/m2
16:01 34.7 °C 6.1 °C 1005.6 hPa SW 7.9 km/h 17.7 km/h 17% 0 mm 691.0 W/m2
16:32 34.7 °C 6.1 °C 1005.3 hPa Calm   9.7 km/h 17% 0 mm 599.0 W/m2
16:48 34.9 °C 6.2 °C 1005.3 hPa SSW 14.3 km/h 19.3 km/h 17% 0 mm 541.0 W/m2
17:02 34.9 °C 6.2 °C 1005 hPa SSW 4.7 km/h 20.9 km/h 17% 0 mm 496.0 W/m2
17:53 34.7 °C 5.2 °C 1004.6 hPa SSW 6.4 km/h 11.3 km/h 16% 0 mm 311.0 W/m2
18:09 34.9 °C 5.4 °C 1004.6 hPa SSW 13 km/h 17.7 km/h 16% 0 mm 258.0 W/m2
18:23 34.7 °C 5.2 °C 1004.6 hPa SSW 7.9 km/h 11.3 km/h 16% 0 mm 192.0 W/m2
18:39 34.7 °C 5.2 °C 1005 hPa SSW 13 km/h 20.9 km/h 16% 0 mm 127.0 W/m2
18:53 34.4 °C 5 °C 1005 hPa South 16.3 km/h 22.5 km/h 16% 0 mm 69.0 W/m2
19:34 33 °C 5.5 °C 1005.3 hPa South 13 km/h 25.7 km/h 18% 0 mm 0.0 W/m2
19:49 32.4 °C 5 °C 1005.6 hPa South 17.7 km/h 25.7 km/h 18% 0 mm 0.0 W/m2
20:04 31.9 °C 3.8 °C 1005.6 hPa South 22.7 km/h 29 km/h 17% 0 mm 0.0 W/m2
20:20 31.4 °C 3.4 °C 1006.3 hPa South 13 km/h 22.5 km/h 17% 0 mm 0.0 W/m2
21:35 27.9 °C 10.1 °C 1007.3 hPa SSW 16.3 km/h 25.7 km/h 33% 0 mm 0.0 W/m2
22:20 26.9 °C 10.6 °C 1007.7 hPa SSW 22.7 km/h 24.1 km/h 36% 0 mm 0.0 W/m2
22:35 26.4 °C 10.5 °C 1007.7 hPa SSW 20.9 km/h 25.7 km/h 37% 0 mm 0.0 W/m2
23:20 25.7 °C 10.3 °C 1008 hPa SSW 16.3 km/h 24.1 km/h 38% 0 mm 0.0 W/m2
23:34 25.3 °C 10.3 °C 1008.4 hPa SSW 16.3 km/h 24.1 km/h 39% 0 mm 0.0 W/m2
23:41 25.1 °C 10.6 °C 1008 hPa SSW 16.3 km/h 24.1 km/h 40% 0 mm 0.0 W/m2
23:56 24.8 °C 10.7 °C 1008.4 hPa SSW 20.9 km/h 25.7 km/h 41% 0 mm 0.0 W/m2
Canyon Roadhouse, Fishriver Canyon, Namibia
Compliments of Weather Underground - 2 mb